createdAt,value
2019-03-11T00:01:32.249Z,99533.27
2019-03-11T00:04:03.980Z,99551.26
2019-03-11T00:06:35.681Z,99554.10
2019-03-11T00:09:07.315Z,99567.00
2019-03-11T00:11:40.653Z,99578.45
2019-03-11T00:14:12.374Z,99582.55
2019-03-11T00:16:43.910Z,99592.03
2019-03-11T00:19:15.625Z,99603.67
2019-03-11T00:21:47.211Z,99614.56
2019-03-11T00:24:19.138Z,99618.56
2019-03-11T00:26:50.835Z,99630.55
2019-03-11T00:29:22.441Z,99640.17
2019-03-11T00:31:54.008Z,99650.05
2019-03-11T00:34:25.736Z,99658.41
2019-03-11T00:36:57.515Z,99668.56
2019-03-11T00:39:29.101Z,99675.63
2019-03-11T00:42:00.748Z,99687.20
2019-03-11T00:44:32.329Z,99694.38
2019-03-11T00:47:03.910Z,99695.61
2019-03-11T00:49:35.404Z,99707.47
2019-03-11T00:52:07.056Z,99714.28
2019-03-11T00:54:38.712Z,99726.87
2019-03-11T00:57:10.367Z,99731.69
2019-03-11T00:59:41.964Z,99736.09
2019-03-11T01:02:13.483Z,99739.52
2019-03-11T01:04:45.116Z,99748.03
2019-03-11T01:07:16.717Z,99745.92
2019-03-11T01:09:48.567Z,99746.11
2019-03-11T01:12:20.228Z,99762.28
2019-03-11T01:14:51.870Z,99764.78
2019-03-11T01:17:23.456Z,99772.78
2019-03-11T01:19:55.013Z,99779.52
2019-03-11T01:22:26.563Z,99786.59
2019-03-11T01:24:58.122Z,99795.11
2019-03-11T01:27:30.793Z,99796.70
2019-03-11T01:30:02.443Z,99802.80
2019-03-11T01:32:34.222Z,99800.64
2019-03-11T01:35:08.243Z,99810.70
2019-03-11T01:37:39.758Z,99807.45
2019-03-11T01:40:17.935Z,99824.59
2019-03-11T01:42:51.615Z,99826.88
2019-03-11T01:45:22.721Z,99828.02
2019-03-11T01:47:54.510Z,99831.61
2019-03-11T01:50:26.098Z,99829.80
2019-03-11T01:52:58.152Z,99834.34
2019-03-11T01:55:30.040Z,99824.59
2019-03-11T01:58:01.611Z,99843.05
2019-03-11T02:00:33.114Z,99851.12
2019-03-11T02:03:04.759Z,99849.47
2019-03-11T02:05:36.421Z,99851.12
2019-03-11T02:08:08.096Z,99857.43
2019-03-11T02:10:40.178Z,99859.11
2019-03-11T02:13:11.774Z,99868.98
2019-03-11T02:15:43.299Z,99859.50
2019-03-11T02:18:14.797Z,99874.96
2019-03-11T02:20:46.459Z,99877.12
2019-03-11T02:23:18.499Z,99883.28
2019-03-11T02:25:50.001Z,99879.69
2019-03-11T02:28:21.526Z,99887.95
2019-03-11T02:30:53.415Z,99888.97
2019-03-11T02:33:25.025Z,99900.52
2019-03-11T02:35:56.547Z,99905.70
2019-03-11T02:38:28.116Z,99902.63
2019-03-11T02:41:00.063Z,99904.11
2019-03-11T02:43:31.570Z,99913.39
2019-03-11T02:46:03.109Z,99912.53
2019-03-11T02:48:34.600Z,99916.12
2019-03-11T02:51:06.180Z,99913.86
2019-03-11T02:53:37.778Z,99918.44
2019-03-11T02:56:09.377Z,99922.66
2019-03-11T02:58:41.158Z,99926.15
2019-03-11T03:01:15.109Z,99915.36
2019-03-11T03:04:00.366Z,99912.72
2019-03-11T03:06:32.082Z,99915.80
2019-03-11T03:09:04.296Z,99923.64
2019-03-11T03:11:35.995Z,99930.88
2019-03-11T03:14:07.561Z,99935.88
2019-03-11T03:16:39.085Z,99947.02
2019-03-11T03:19:10.731Z,99950.45
2019-03-11T03:21:42.330Z,99944.70
2019-03-11T03:24:13.981Z,99957.60
2019-03-11T03:26:45.766Z,99955.31
2019-03-11T03:29:18.382Z,99970.05
2019-03-11T03:31:50.247Z,99965.39
2019-03-11T03:34:21.833Z,99962.63
2019-03-11T03:36:53.370Z,99968.98
2019-03-11T03:39:25.187Z,99963.39
2019-03-11T03:41:56.868Z,99974.57
2019-03-11T03:44:28.398Z,99969.55
2019-03-11T03:47:00.071Z,99971.20
2019-03-11T03:49:31.734Z,99969.55
2019-03-11T03:52:03.258Z,99974.41
2019-03-11T03:54:34.995Z,99978.16
2019-03-11T03:57:06.493Z,99989.66
2019-03-11T03:59:38.069Z,100001.34
2019-03-11T04:02:09.646Z,100007.09
2019-03-11T04:04:41.226Z,100009.31
2019-03-11T04:07:12.747Z,100017.64
2019-03-11T04:09:44.974Z,100014.50
2019-03-11T04:12:16.686Z,100016.45
2019-03-11T04:14:48.240Z,100014.14
2019-03-11T04:17:19.960Z,100024.81
2019-03-11T04:19:51.613Z,100033.65
2019-03-11T04:22:23.233Z,100037.68
2019-03-11T04:24:55.215Z,100044.71
2019-03-11T04:27:27.788Z,100042.22
2019-03-11T04:29:59.373Z,100046.19
2019-03-11T04:32:31.121Z,100041.86
2019-03-11T04:35:02.775Z,100053.78
2019-03-11T04:37:34.353Z,100065.90
2019-03-11T04:40:14.991Z,100067.85
2019-03-11T04:42:46.618Z,100069.39
2019-03-11T04:45:18.751Z,100074.92
2019-03-11T04:47:50.456Z,100077.11
2019-03-11T04:50:22.425Z,100082.50
2019-03-11T04:52:54.137Z,100076.00
2019-03-11T04:55:26.388Z,100079.05
2019-03-11T04:57:57.974Z,100079.99
2019-03-11T05:00:33.494Z,100082.35
2019-03-11T05:03:05.072Z,100088.66
2019-03-11T05:05:36.724Z,100100.16
2019-03-11T05:08:08.320Z,100091.69
2019-03-11T05:10:39.857Z,100101.38
2019-03-11T05:13:11.446Z,100097.59
2019-03-11T05:15:43.174Z,100094.52
2019-03-11T05:18:14.800Z,100110.41
2019-03-11T05:20:46.380Z,100118.92
2019-03-11T05:23:18.143Z,100114.09
2019-03-11T05:25:49.677Z,100106.03
2019-03-11T05:28:21.220Z,100111.26
2019-03-11T05:30:53.593Z,100111.36
2019-03-11T05:33:25.093Z,100106.42
2019-03-11T05:35:56.761Z,100118.41
2019-03-11T05:38:28.378Z,100126.45
2019-03-11T05:41:00.395Z,100128.36
2019-03-11T05:43:31.917Z,100130.05
2019-03-11T05:46:03.517Z,100143.06
2019-03-11T05:48:35.251Z,100143.70
2019-03-11T05:51:07.311Z,100152.17
2019-03-11T05:53:40.621Z,100151.98
2019-03-11T05:56:13.248Z,100150.98
2019-03-11T05:58:44.896Z,100157.89
2019-03-11T06:01:16.425Z,100150.04
2019-03-11T06:03:48.015Z,100150.72
2019-03-11T06:06:19.760Z,100143.40
2019-03-11T06:08:51.570Z,100152.97
2019-03-11T06:11:23.565Z,100154.95
2019-03-11T06:13:55.448Z,100148.61
2019-03-11T06:16:26.955Z,100155.25
2019-03-11T06:18:58.547Z,100156.11
2019-03-11T06:21:31.775Z,100158.52
2019-03-11T06:24:03.402Z,100163.77
2019-03-11T06:26:35.636Z,100157.84
2019-03-11T06:29:08.240Z,100160.16
2019-03-11T06:31:39.836Z,100164.70
2019-03-11T06:34:11.441Z,100162.89
2019-03-11T06:36:43.031Z,100155.20
2019-03-11T06:39:14.756Z,100164.33
2019-03-11T06:41:46.840Z,100160.66
2019-03-11T06:44:18.354Z,100162.30
2019-03-11T06:46:49.900Z,100164.97
2019-03-11T06:49:21.449Z,100166.61
2019-03-11T06:51:53.052Z,100169.36
2019-03-11T06:54:24.706Z,100166.64
2019-03-11T06:56:56.904Z,100167.28
2019-03-11T06:59:28.414Z,100167.09
2019-03-11T07:02:00.999Z,100167.79
2019-03-11T07:04:32.587Z,100167.28
2019-03-11T07:07:04.124Z,100170.38
2019-03-11T07:09:36.058Z,100167.17
2019-03-11T07:12:07.908Z,100166.73
2019-03-11T07:14:39.894Z,100164.39
2019-03-11T07:17:11.543Z,100169.95
2019-03-11T07:19:43.261Z,100169.75
2019-03-11T07:22:14.864Z,100176.01
2019-03-11T07:24:47.354Z,100174.62
2019-03-11T07:27:19.446Z,100165.72
2019-03-11T07:29:51.074Z,100172.09
2019-03-11T07:32:22.614Z,100176.73
2019-03-11T07:34:54.187Z,100180.55
2019-03-11T07:37:25.787Z,100174.80
2019-03-11T07:39:57.854Z,100177.96
2019-03-11T07:42:29.450Z,100188.50
2019-03-11T07:45:01.065Z,100191.59
2019-03-11T07:47:33.891Z,100185.58
2019-03-11T07:50:07.719Z,100193.42
2019-03-11T07:52:39.255Z,100187.11
2019-03-11T07:55:15.476Z,100188.61
2019-03-11T07:57:47.562Z,100187.62
2019-03-11T08:00:22.233Z,100177.11
2019-03-11T08:02:53.759Z,100181.36
2019-03-11T08:05:25.347Z,100183.38
2019-03-11T08:07:57.150Z,100175.69
2019-03-11T08:10:28.846Z,100176.45
2019-03-11T08:13:00.855Z,100185.98
2019-03-11T08:15:33.601Z,100184.11
2019-03-11T08:18:05.282Z,100182.34
2019-03-11T08:20:36.930Z,100178.14
2019-03-11T08:23:08.542Z,100178.27
2019-03-11T08:25:40.143Z,100183.58
2019-03-11T08:28:12.177Z,100180.20
2019-03-11T08:30:43.832Z,100177.50
2019-03-11T08:33:15.551Z,100177.11
2019-03-11T08:35:47.129Z,100182.56
2019-03-11T08:38:18.856Z,100171.36
2019-03-11T08:40:52.423Z,100177.94
2019-03-11T08:43:23.659Z,100183.08
2019-03-11T08:45:55.200Z,100179.60
2019-03-11T08:48:26.816Z,100188.83
2019-03-11T08:50:58.357Z,100173.20
2019-03-11T08:53:29.945Z,100170.56
2019-03-11T08:56:01.537Z,100175.87
2019-03-11T08:58:33.522Z,100173.30
2019-03-11T09:01:05.065Z,100176.67
2019-03-11T09:03:36.657Z,100186.00
2019-03-11T09:06:08.244Z,100185.33
2019-03-11T09:08:40.026Z,100187.08
2019-03-11T09:11:11.694Z,100185.94
2019-03-11T09:13:43.696Z,100181.61
2019-03-11T09:16:15.264Z,100191.14
2019-03-11T09:18:46.870Z,100188.86
2019-03-11T09:21:18.623Z,100183.33
2019-03-11T09:23:50.281Z,100184.50
2019-03-11T09:26:22.910Z,100183.64
2019-03-11T09:28:55.026Z,100185.62
2019-03-11T09:31:26.810Z,100186.25
2019-03-11T09:33:58.435Z,100188.99
2019-03-11T09:36:30.061Z,100191.77
2019-03-11T09:39:01.744Z,100186.77
2019-03-11T09:41:35.006Z,100187.98
2019-03-11T09:44:07.166Z,100192.78
2019-03-11T09:46:38.921Z,100190.67
2019-03-11T09:49:10.657Z,100202.80
2019-03-11T09:51:42.533Z,100198.34
2019-03-11T09:54:14.184Z,100205.28
2019-03-11T09:56:45.725Z,100209.55
2019-03-11T09:59:17.871Z,100204.33
2019-03-11T10:01:49.372Z,100206.97
2019-03-11T10:04:21.152Z,100211.08
2019-03-11T10:06:52.906Z,100197.77
2019-03-11T10:09:24.513Z,100210.66
2019-03-11T10:11:56.255Z,100200.63
2019-03-11T10:14:27.961Z,100209.23
2019-03-11T10:16:59.898Z,100201.78
2019-03-11T10:19:31.552Z,100204.73
2019-03-11T10:22:03.074Z,100205.30
2019-03-11T10:24:34.807Z,100203.55
2019-03-11T10:27:06.335Z,100203.14
2019-03-11T10:29:37.928Z,100205.39
2019-03-11T10:32:10.027Z,100205.56
2019-03-11T10:34:42.622Z,100205.21
2019-03-11T10:37:14.210Z,100199.62
2019-03-11T10:39:47.810Z,100206.34
2019-03-11T10:42:18.933Z,100196.03
2019-03-11T10:44:50.607Z,100205.12
2019-03-11T10:47:22.874Z,100205.95
2019-03-11T10:49:54.507Z,100198.78
2019-03-11T10:52:26.098Z,100200.56
2019-03-11T10:54:57.762Z,100197.16
2019-03-11T10:57:29.233Z,100199.12
2019-03-11T11:00:00.907Z,100197.19
2019-03-11T11:02:33.975Z,100189.96
2019-03-11T11:05:07.660Z,100191.58
2019-03-11T11:07:39.255Z,100188.08
2019-03-11T11:10:19.104Z,100182.94
2019-03-11T11:12:50.679Z,100188.42
2019-03-11T11:15:31.361Z,100184.00
2019-03-11T11:18:03.048Z,100177.20
2019-03-11T11:20:35.512Z,100182.38
2019-03-11T11:23:08.115Z,100189.59
2019-03-11T11:25:42.059Z,100179.03
2019-03-11T11:28:14.458Z,100190.41
2019-03-11T11:30:45.961Z,100192.09
2019-03-11T11:33:17.571Z,100184.77
2019-03-11T11:35:49.218Z,100189.25
2019-03-11T11:38:20.897Z,100194.17
2019-03-11T11:40:52.600Z,100187.27
2019-03-11T11:43:24.115Z,100181.77
2019-03-11T11:45:55.780Z,100188.21
2019-03-11T11:48:27.492Z,100188.16
2019-03-11T11:50:59.085Z,100194.35
2019-03-11T11:53:30.747Z,100195.39
2019-03-11T11:56:02.388Z,100202.20
2019-03-11T11:58:34.095Z,100201.23
2019-03-11T12:01:05.765Z,100197.11
2019-03-11T12:03:37.410Z,100192.13
2019-03-11T12:06:09.010Z,100194.66
2019-03-11T12:08:40.531Z,100197.94
2019-03-11T12:11:12.144Z,100204.64
2019-03-11T12:13:43.873Z,100196.49
2019-03-11T12:16:16.451Z,100196.88
2019-03-11T12:18:47.975Z,100194.06
2019-03-11T12:21:19.671Z,100202.51
2019-03-11T12:23:51.194Z,100198.67
2019-03-11T12:26:22.858Z,100203.70
2019-03-11T12:28:54.417Z,100206.53
2019-03-11T12:31:26.007Z,100201.88
2019-03-11T12:33:58.043Z,100202.95
2019-03-11T12:36:29.747Z,100199.87
2019-03-11T12:39:01.538Z,100206.20
2019-03-11T12:41:34.660Z,100209.38
2019-03-11T12:44:06.175Z,100197.44
2019-03-11T12:46:37.752Z,100214.33
2019-03-11T12:49:09.414Z,100209.27
2019-03-11T12:51:49.176Z,100205.03
2019-03-11T12:54:14.177Z,100205.63
2019-03-11T12:56:45.822Z,100214.33
2019-03-11T12:59:17.407Z,100216.90
2019-03-11T13:01:49.067Z,100213.80
2019-03-11T13:04:20.641Z,100217.42
2019-03-11T13:06:53.356Z,100221.22
2019-03-11T13:09:25.435Z,100223.33
2019-03-11T13:11:57.004Z,100226.98
2019-03-11T13:14:28.676Z,100228.98
2019-03-11T13:17:00.348Z,100239.73
2019-03-11T13:19:33.099Z,100240.68
2019-03-11T13:22:04.714Z,100236.05
2019-03-11T13:24:36.285Z,100237.97
2019-03-11T13:27:07.852Z,100243.50
2019-03-11T13:29:39.368Z,100240.94
2019-03-11T13:32:11.010Z,100242.14
2019-03-11T13:34:42.650Z,100250.48
2019-03-11T13:37:14.318Z,100249.91
2019-03-11T13:39:45.998Z,100254.51
2019-03-11T13:42:17.569Z,100252.38
2019-03-11T13:44:49.242Z,100253.59
2019-03-11T13:47:21.302Z,100253.50
2019-03-11T13:49:52.929Z,100252.92
2019-03-11T13:52:24.577Z,100251.59
2019-03-11T13:54:56.175Z,100255.00
2019-03-11T13:57:27.768Z,100246.48
2019-03-11T13:59:59.425Z,100238.77
2019-03-11T14:02:30.935Z,100237.73
2019-03-11T14:05:02.527Z,100238.66
2019-03-11T14:07:35.733Z,100239.32
2019-03-11T14:10:10.298Z,100239.43
2019-03-11T14:12:41.924Z,100236.47
2019-03-11T14:15:17.970Z,100242.73
2019-03-11T14:17:49.555Z,100239.47
2019-03-11T14:20:21.072Z,100235.82
2019-03-11T14:22:52.668Z,100266.48
2019-03-11T14:25:24.249Z,100273.63
2019-03-11T14:27:55.799Z,100288.17
2019-03-11T14:30:27.345Z,100288.01
2019-03-11T14:32:58.949Z,100295.67
2019-03-11T14:35:30.561Z,100307.43
2019-03-11T14:38:02.127Z,100304.73
2019-03-11T14:40:34.719Z,100309.39
2019-03-11T14:43:06.267Z,100309.97
2019-03-11T14:45:37.826Z,100308.48
2019-03-11T14:48:09.458Z,100310.03
2019-03-11T14:50:40.977Z,100310.78
2019-03-11T14:53:12.570Z,100312.48
2019-03-11T14:55:44.097Z,100310.93
2019-03-11T14:58:16.743Z,100309.41
2019-03-11T15:00:48.307Z,100314.26
2019-03-11T15:03:20.326Z,100318.25
2019-03-11T15:05:53.564Z,100310.89
2019-03-11T15:08:25.267Z,100312.97
2019-03-11T15:10:57.758Z,100306.31
2019-03-11T15:13:29.383Z,100311.00
2019-03-11T15:16:01.150Z,100311.58
2019-03-11T15:18:33.242Z,100309.55
2019-03-11T15:21:04.753Z,100309.67
2019-03-11T15:23:36.363Z,100299.39
2019-03-11T15:26:09.794Z,100305.42
2019-03-11T15:28:41.575Z,100303.65
2019-03-11T15:31:16.429Z,100303.05
2019-03-11T15:33:49.440Z,100302.38
2019-03-11T15:36:23.108Z,100296.97
2019-03-11T15:38:54.529Z,100299.11
2019-03-11T15:41:26.358Z,100294.25
2019-03-11T15:43:57.989Z,100302.57
2019-03-11T15:46:38.872Z,100307.23
2019-03-11T15:49:02.754Z,100311.97
2019-03-11T15:51:36.942Z,100303.81
2019-03-11T15:54:07.792Z,100308.81
2019-03-11T15:56:39.314Z,100301.64
2019-03-11T15:59:10.970Z,100305.72
2019-03-11T16:01:42.609Z,100312.27
2019-03-11T16:04:14.408Z,100306.69
2019-03-11T16:06:45.910Z,100302.27
2019-03-11T16:09:19.713Z,100303.67
2019-03-11T16:11:50.904Z,100300.91
2019-03-11T16:14:22.458Z,100310.23
2019-03-11T16:16:55.043Z,100303.97
2019-03-11T16:19:26.598Z,100313.73
2019-03-11T16:21:58.185Z,100313.66
2019-03-11T16:24:29.762Z,100322.08
2019-03-11T16:27:01.543Z,100322.14
2019-03-11T16:29:33.137Z,100330.19
2019-03-11T16:32:04.738Z,100328.34
2019-03-11T16:34:36.329Z,100324.84
2019-03-11T16:37:07.911Z,100329.94
2019-03-11T16:39:39.566Z,100332.27
2019-03-11T16:42:11.123Z,100339.78
2019-03-11T16:44:42.721Z,100340.95
2019-03-11T16:47:14.242Z,100349.38
2019-03-11T16:49:45.838Z,100346.45
2019-03-11T16:52:17.337Z,100354.38
2019-03-11T16:54:48.926Z,100348.97
2019-03-11T16:57:20.476Z,100349.88
2019-03-11T16:59:52.074Z,100349.93
2019-03-11T17:02:23.778Z,100354.38
2019-03-11T17:04:55.468Z,100360.39
2019-03-11T17:07:27.201Z,100364.89
2019-03-11T17:09:58.731Z,100371.41
2019-03-11T17:12:30.322Z,100374.46
2019-03-11T17:15:01.848Z,100373.47
2019-03-11T17:17:33.758Z,100375.70
2019-03-11T17:20:10.211Z,100380.64
2019-03-11T17:22:42.315Z,100387.62
2019-03-11T17:25:14.981Z,100385.55
2019-03-11T17:27:49.838Z,100394.41
2019-03-11T17:30:26.700Z,100394.33
2019-03-11T17:32:58.511Z,100403.23
2019-03-11T17:35:30.068Z,100398.64
2019-03-11T17:38:02.047Z,100403.06
2019-03-11T17:40:33.661Z,100411.09
2019-03-11T17:43:05.482Z,100412.41
2019-03-11T17:45:37.071Z,100417.55
2019-03-11T17:48:08.820Z,100420.67
2019-03-11T17:50:40.618Z,100425.64
2019-03-11T17:53:19.878Z,100425.59
2019-03-11T17:55:45.875Z,100437.50
2019-03-11T17:58:17.456Z,100437.34
2019-03-11T18:00:55.625Z,100446.19
2019-03-11T18:03:24.016Z,100447.08
2019-03-11T18:05:57.159Z,100454.25
2019-03-11T18:08:28.916Z,100467.09
2019-03-11T18:11:00.503Z,100465.58
2019-03-11T18:13:32.350Z,100461.08
2019-03-11T18:16:04.022Z,100464.25
2019-03-11T18:18:35.615Z,100479.09
2019-03-11T18:21:08.520Z,100478.13
2019-03-11T18:23:40.123Z,100475.86
2019-03-11T18:26:12.794Z,100482.14
2019-03-11T18:28:45.471Z,100482.12
2019-03-11T18:31:16.995Z,100489.23
2019-03-11T18:33:48.527Z,100489.88
2019-03-11T18:36:20.056Z,100494.45
2019-03-11T18:38:51.545Z,100496.66
2019-03-11T18:41:23.113Z,100501.64
2019-03-11T18:43:54.678Z,100506.16
2019-03-11T18:46:26.217Z,100504.66
2019-03-11T18:48:57.827Z,100517.06
2019-03-11T18:51:29.384Z,100515.42
2019-03-11T18:54:01.024Z,100519.41
2019-03-11T18:56:32.648Z,100522.15
2019-03-11T18:59:04.185Z,100527.84
2019-03-11T19:01:35.706Z,100528.76
2019-03-11T19:04:07.261Z,100525.68
2019-03-11T19:06:38.824Z,100528.35
2019-03-11T19:09:10.414Z,100532.00
2019-03-11T19:11:42.934Z,100529.82
2019-03-11T19:14:14.669Z,100534.40
2019-03-11T19:16:47.347Z,100534.85
2019-03-11T19:19:19.046Z,100538.92
2019-03-11T19:21:50.659Z,100553.11
2019-03-11T19:24:22.717Z,100552.75
2019-03-11T19:26:55.736Z,100549.19
2019-03-11T19:29:27.604Z,100558.45
2019-03-11T19:31:59.131Z,100554.41
2019-03-11T19:34:30.961Z,100551.75
2019-03-11T19:37:02.673Z,100571.20
2019-03-11T19:39:34.188Z,100567.61
2019-03-11T19:42:05.835Z,100568.80
2019-03-11T19:44:37.766Z,100575.41
2019-03-11T19:47:09.396Z,100584.46
2019-03-11T19:49:41.132Z,100586.44
2019-03-11T19:52:12.710Z,100584.62
2019-03-11T19:54:44.512Z,100588.20
2019-03-11T19:57:16.239Z,100590.02
2019-03-11T19:59:47.840Z,100592.36
2019-03-11T20:02:19.395Z,100593.22
2019-03-11T20:04:51.172Z,100599.94
2019-03-11T20:07:22.756Z,100598.27
2019-03-11T20:09:54.562Z,100600.63
2019-03-11T20:12:26.275Z,100601.62
2019-03-11T20:14:58.887Z,100604.80
2019-03-11T20:17:30.573Z,100611.05
2019-03-11T20:20:02.166Z,100620.45
2019-03-11T20:22:33.971Z,100602.11
2019-03-11T20:25:13.319Z,100604.42
2019-03-11T20:27:45.114Z,100622.20
2019-03-11T20:30:20.164Z,100621.35
2019-03-11T20:32:51.921Z,100619.48
2019-03-11T20:35:23.556Z,100627.96
2019-03-11T20:37:55.271Z,100633.72
2019-03-11T20:40:26.991Z,100643.97
2019-03-11T20:42:58.589Z,100647.97
2019-03-11T20:45:30.432Z,100654.20
2019-03-11T20:48:02.191Z,100657.66
2019-03-11T20:50:42.022Z,100657.36
2019-03-11T20:53:07.279Z,100667.13
2019-03-11T20:55:38.909Z,100670.27
2019-03-11T20:58:10.534Z,100666.75
2019-03-11T21:00:42.189Z,100669.36
2019-03-11T21:03:13.912Z,100681.48
2019-03-11T21:05:53.216Z,100687.73
2019-03-11T21:08:24.850Z,100684.56
2019-03-11T21:10:56.940Z,100686.52
2019-03-11T21:13:28.661Z,100687.83
2019-03-11T21:16:00.221Z,100689.61
2019-03-11T21:18:32.278Z,100696.92
2019-03-11T21:21:05.341Z,100690.73
2019-03-11T21:23:38.550Z,100690.57
2019-03-11T21:26:13.644Z,100691.96
2019-03-11T21:28:47.808Z,100705.82
2019-03-11T21:31:20.437Z,100711.10
2019-03-11T21:33:58.373Z,100710.56
2019-03-11T21:36:25.674Z,100714.94
2019-03-11T21:38:58.951Z,100717.34
2019-03-11T21:41:31.015Z,100727.64
2019-03-11T21:44:02.784Z,100729.50
2019-03-11T21:46:34.518Z,100738.02
2019-03-11T21:49:06.228Z,100736.21
2019-03-11T21:51:37.736Z,100742.02
2019-03-11T21:54:10.960Z,100741.45
2019-03-11T21:56:43.049Z,100745.81
2019-03-11T21:59:14.833Z,100748.96
2019-03-11T22:01:46.667Z,100749.77
2019-03-11T22:04:18.212Z,100758.03
2019-03-11T22:06:49.823Z,100761.06
2019-03-11T22:09:22.984Z,100763.24
2019-03-11T22:11:54.636Z,100771.23
2019-03-11T22:14:26.898Z,100769.92
2019-03-11T22:16:58.543Z,100784.59
2019-03-11T22:19:30.318Z,100780.21
2019-03-11T22:22:01.899Z,100790.08
2019-03-11T22:24:33.593Z,100802.13
2019-03-11T22:27:05.203Z,100806.08
2019-03-11T22:29:37.310Z,100805.69
2019-03-11T22:32:08.960Z,100801.28
2019-03-11T22:34:40.610Z,100805.28
2019-03-11T22:37:12.339Z,100804.55
2019-03-11T22:39:43.861Z,100808.52
2019-03-11T22:42:15.519Z,100804.59
2019-03-11T22:44:47.036Z,100805.42
2019-03-11T22:47:18.751Z,100809.08
2019-03-11T22:49:50.282Z,100809.69
2019-03-11T22:52:22.945Z,100815.48
2019-03-11T22:54:54.511Z,100825.40
2019-03-11T22:57:26.041Z,100821.09
2019-03-11T22:59:57.707Z,100822.92
2019-03-11T23:02:29.516Z,100829.18
2019-03-11T23:05:01.222Z,100840.70
2019-03-11T23:07:34.216Z,100839.83
2019-03-11T23:10:07.931Z,100843.42
2019-03-11T23:12:40.175Z,100845.69
2019-03-11T23:15:11.825Z,100843.95
2019-03-11T23:17:43.653Z,100847.02
2019-03-11T23:20:15.306Z,100855.00
2019-03-11T23:22:46.842Z,100848.34
2019-03-11T23:25:18.822Z,100846.61
2019-03-11T23:27:51.415Z,100850.20
2019-03-11T23:30:23.468Z,100849.83
2019-03-11T23:32:55.059Z,100862.70
2019-03-11T23:35:26.615Z,100868.45
2019-03-11T23:37:58.126Z,100872.94
2019-03-11T23:40:29.713Z,100878.66
2019-03-11T23:43:01.818Z,100877.75
2019-03-11T23:45:33.984Z,100883.50
2019-03-11T23:48:05.587Z,100887.49
2019-03-11T23:50:37.096Z,100890.56
2019-03-11T23:53:08.604Z,100894.96
2019-03-11T23:55:40.197Z,100893.63
2019-03-11T23:58:12.694Z,100896.76
